Time;durP1;ratioP1;P1;durP2;ratioP2;P2;SDS_P1;SDS_P2;PMS_P1;PMS_P2;Temp;Humidity;BMP_temperature;BMP_pressure;BME280_temperature;BME280_humidity;BME280_pressure;Samples;Min_cycle;Max_cycle;Signal;HPM_P1;HPM_P2
2023/04/29 00:01:04;;;;;;;1.55;1.20;;;;;;;;;;5053819;28;20036;-79
2023/04/29 00:03:31;;;;;;;1.38;0.30;;;;;;;;;;5039307;28;20307;-78
2023/04/29 00:05:57;;;;;;;1.52;0.80;;;;;;;;;;5023460;28;20029;-78
2023/04/29 00:08:22;;;;;;;0.68;0.55;;;;;;;;;;5056050;28;20033;-76
2023/04/29 00:10:48;;;;;;;0.40;0.35;;;;;;;;;;5033934;28;20025;-76
2023/04/29 00:13:14;;;;;;;0.35;0.22;;;;;;;;;;5057071;28;20401;-76
2023/04/29 00:15:40;;;;;;;0.28;0.13;;;;;;;;;;5032710;28;20021;-76
2023/04/29 00:18:05;;;;;;;0.30;0.30;;;;;;;;;;5055734;28;20354;-79
2023/04/29 00:20:31;;;;;;;0.47;0.47;;;;;;;;;;5048655;28;20021;-75
2023/04/29 00:22:57;;;;;;;0.30;0.30;;;;;;;;;;5055808;28;20032;-76
2023/04/29 00:25:22;;;;;;;0.32;0.32;;;;;;;;;;5055372;28;20213;-76
2023/04/29 00:27:48;;;;;;;1.27;0.70;;;;;;;;;;5034003;28;20033;-76
2023/04/29 00:30:13;;;;;;;0.43;0.43;;;;;;;;;;5055659;28;20039;-76
2023/04/29 00:32:39;;;;;;;1.58;0.75;;;;;;;;;;5032348;28;20437;-76
2023/04/29 00:35:05;;;;;;;2.08;0.30;;;;;;;;;;5038973;28;20055;-78
2023/04/29 00:37:31;;;;;;;0.40;0.35;;;;;;;;;;5047807;28;20029;-77
2023/04/29 00:39:57;;;;;;;0.20;0.20;;;;;;;;;;5038627;28;20446;-77
2023/04/29 00:42:23;;;;;;;1.23;0.65;;;;;;;;;;5038604;28;20057;-77
2023/04/29 00:44:48;;;;;;;0.75;0.65;;;;;;;;;;5050083;28;20021;-77
2023/04/29 00:47:13;;;;;;;1.00;0.88;;;;;;;;;;5038603;28;20233;-77
2023/04/29 00:49:39;;;;;;;0.47;0.47;;;;;;;;;;5006456;28;20037;-77
2023/04/29 00:52:06;;;;;;;1.50;0.50;;;;;;;;;;5051474;28;20044;-77
2023/04/29 00:54:32;;;;;;;0.52;0.52;;;;;;;;;;5051469;28;20358;-76
2023/04/29 00:56:58;;;;;;;0.52;0.52;;;;;;;;;;5051873;28;20026;-78
2023/04/29 00:59:30;;;;;;;0.25;0.20;;;;;;;;;;5051737;28;20044;-76
2023/04/29 01:01:58;;;;;;;0.30;0.30;;;;;;;;;;5050568;28;20021;-77
2023/04/29 01:04:23;;;;;;;1.00;0.40;;;;;;;;;;5051537;28;20036;-77
2023/04/29 01:07:14;;;;;;;1.73;0.55;;;;;;;;;;5051512;28;20025;-77
2023/04/29 01:09:55;;;;;;;0.30;0.30;;;;;;;;;;5051800;28;20123;-76
2023/04/29 01:12:39;;;;;;;0.20;0.20;;;;;;;;;;5038741;28;20037;-78
2023/04/29 01:15:06;;;;;;;0.98;0.73;;;;;;;;;;5051675;28;20029;-78
2023/04/29 01:17:53;;;;;;;0.10;0.10;;;;;;;;;;5047012;28;20041;-77
2023/04/29 01:20:18;;;;;;;0.60;0.57;;;;;;;;;;5054608;28;20039;-77
2023/04/29 01:22:44;;;;;;;0.90;0.70;;;;;;;;;;5048452;28;20115;-77
2023/04/29 01:25:09;;;;;;;0.85;0.50;;;;;;;;;;5038324;28;20387;-78
2023/04/29 01:27:44;;;;;;;0.60;0.60;;;;;;;;;;5047318;28;20442;-78
2023/04/29 01:30:35;;;;;;;0.30;0.20;;;;;;;;;;5054662;28;20057;-78
2023/04/29 01:33:11;;;;;;;0.57;0.25;;;;;;;;;;5047951;28;20446;-78
2023/04/29 01:35:55;;;;;;;0.68;0.55;;;;;;;;;;5025374;28;20029;-77
2023/04/29 01:38:21;;;;;;;0.52;0.50;;;;;;;;;;5055120;28;20052;-78
2023/04/29 01:40:55;;;;;;;0.85;0.75;;;;;;;;;;5055520;28;20088;-77
2023/04/29 01:43:21;;;;;;;0.10;0.10;;;;;;;;;;5053572;28;20025;-77
2023/04/29 01:45:47;;;;;;;0.55;0.47;;;;;;;;;;5016124;28;20495;-78
2023/04/29 01:48:12;;;;;;;0.47;0.47;;;;;;;;;;5054018;28;20036;-76
2023/04/29 01:50:38;;;;;;;0.55;0.55;;;;;;;;;;5028283;28;20059;-78
2023/04/29 01:53:03;;;;;;;0.73;0.73;;;;;;;;;;5053797;28;20081;-76
2023/04/29 01:55:29;;;;;;;1.05;0.70;;;;;;;;;;5054886;28;20032;-75
2023/04/29 01:57:54;;;;;;;2.75;1.45;;;;;;;;;;5049176;28;20079;-76
2023/04/29 02:00:20;;;;;;;1.35;0.90;;;;;;;;;;5020520;28;20178;-78
2023/04/29 02:02:46;;;;;;;1.13;0.43;;;;;;;;;;5048230;28;20021;-78
2023/04/29 02:05:11;;;;;;;2.08;1.20;;;;;;;;;;5037280;28;20032;-77
2023/04/29 02:07:37;;;;;;;0.20;0.20;;;;;;;;;;5046073;28;20025;-78
2023/04/29 02:10:02;;;;;;;0.65;0.65;;;;;;;;;;5053587;28;20386;-78
2023/04/29 02:12:28;;;;;;;1.40;0.65;;;;;;;;;;5053582;28;20028;-78
2023/04/29 02:14:55;;;;;;;0.38;0.38;;;;;;;;;;5054401;28;20096;-77
2023/04/29 02:17:20;;;;;;;0.40;0.40;;;;;;;;;;5020151;28;20044;-77
2023/04/29 02:19:45;;;;;;;0.65;0.57;;;;;;;;;;5036851;28;20040;-78
2023/04/29 02:22:11;;;;;;;0.32;0.32;;;;;;;;;;5053183;28;20040;-77
2023/04/29 02:24:37;;;;;;;0.65;0.65;;;;;;;;;;5054099;28;20094;-77
2023/04/29 02:27:04;;;;;;;1.10;1.00;;;;;;;;;;5053497;28;20033;-78
2023/04/29 02:29:31;;;;;;;0.38;0.38;;;;;;;;;;5053613;28;20029;-78
2023/04/29 02:31:56;;;;;;;0.95;0.52;;;;;;;;;;5036962;28;20136;-78
2023/04/29 02:34:22;;;;;;;0.73;0.50;;;;;;;;;;5054315;28;20068;-77
2023/04/29 02:36:48;;;;;;;0.50;0.47;;;;;;;;;;5054408;28;20110;-77
2023/04/29 02:39:14;;;;;;;1.15;0.38;;;;;;;;;;5036512;28;20029;-78
2023/04/29 02:41:40;;;;;;;0.55;0.30;;;;;;;;;;5054138;28;20021;-78
2023/04/29 02:44:06;;;;;;;0.40;0.40;;;;;;;;;;5036787;28;20029;-77
2023/04/29 02:46:34;;;;;;;0.47;0.20;;;;;;;;;;5036338;28;20076;-77
2023/04/29 02:49:00;;;;;;;0.75;0.40;;;;;;;;;;5053007;28;20083;-78
2023/04/29 02:51:26;;;;;;;0.47;0.47;;;;;;;;;;5036185;28;20029;-77
2023/04/29 02:53:52;;;;;;;7.03;4.05;;;;;;;;;;5053644;28;20059;-78
2023/04/29 02:56:17;;;;;;;0.68;0.40;;;;;;;;;;5035762;28;20036;-78
2023/04/29 02:58:42;;;;;;;0.50;0.20;;;;;;;;;;5036318;28;20079;-78
2023/04/29 03:01:08;;;;;;;0.73;0.55;;;;;;;;;;5052717;28;20035;-79
2023/04/29 03:03:33;;;;;;;2.88;0.30;;;;;;;;;;5035596;28;20035;-78
2023/04/29 03:05:59;;;;;;;0.70;0.50;;;;;;;;;;5036039;28;20127;-78
2023/04/29 03:08:24;;;;;;;0.75;0.32;;;;;;;;;;5052827;28;20120;-79
2023/04/29 03:10:49;;;;;;;0.70;0.60;;;;;;;;;;5052596;28;20035;-78
2023/04/29 03:13:15;;;;;;;0.93;0.65;;;;;;;;;;5052451;28;20362;-77
2023/04/29 03:15:41;;;;;;;1.38;1.10;;;;;;;;;;5035640;28;20402;-77
2023/04/29 03:18:06;;;;;;;0.77;0.77;;;;;;;;;;5035690;28;20078;-77
2023/04/29 03:20:32;;;;;;;0.82;0.50;;;;;;;;;;5050210;28;20059;-78
2023/04/29 03:22:58;;;;;;;1.70;0.82;;;;;;;;;;5022446;28;20045;-77
2023/04/29 03:25:24;;;;;;;0.90;0.65;;;;;;;;;;5048980;28;20036;-77
2023/04/29 03:27:49;;;;;;;0.65;0.50;;;;;;;;;;5032424;28;20033;-77
2023/04/29 03:30:14;;;;;;;0.57;0.50;;;;;;;;;;5048931;28;20026;-78
2023/04/29 03:32:40;;;;;;;0.50;0.50;;;;;;;;;;5048618;28;20021;-77
2023/04/29 03:35:06;;;;;;;0.43;0.43;;;;;;;;;;5048822;28;20026;-77
2023/04/29 03:37:31;;;;;;;1.10;1.00;;;;;;;;;;5049229;28;20044;-77
2023/04/29 03:39:56;;;;;;;1.25;0.55;;;;;;;;;;5049120;28;20055;-78
2023/04/29 03:42:22;;;;;;;1.48;1.38;;;;;;;;;;5033390;28;20034;-77
2023/04/29 03:44:47;;;;;;;0.75;0.57;;;;;;;;;;5048914;28;20034;-78
2023/04/29 03:47:13;;;;;;;1.23;0.68;;;;;;;;;;5032996;28;20399;-76
2023/04/29 03:49:38;;;;;;;1.65;0.77;;;;;;;;;;5049031;28;20411;-77
2023/04/29 03:52:04;;;;;;;1.23;0.68;;;;;;;;;;5032312;28;20021;-76
2023/04/29 03:54:29;;;;;;;0.63;0.57;;;;;;;;;;5048784;28;20025;-76
2023/04/29 03:56:55;;;;;;;1.08;0.82;;;;;;;;;;5048793;28;20079;-76
2023/04/29 03:59:20;;;;;;;3.08;1.23;;;;;;;;;;5032271;28;20026;-77
2023/04/29 04:01:46;;;;;;;8.27;3.53;;;;;;;;;;5031604;28;20034;-77
2023/04/29 04:04:12;;;;;;;1.40;1.27;;;;;;;;;;5048598;28;20056;-76
2023/04/29 04:06:38;;;;;;;3.35;0.80;;;;;;;;;;5032036;28;20120;-77
2023/04/29 04:09:03;;;;;;;3.10;0.93;;;;;;;;;;5048635;28;20112;-78
2023/04/29 04:11:28;;;;;;;0.95;0.68;;;;;;;;;;5048587;28;20088;-78
2023/04/29 04:13:54;;;;;;;2.53;2.13;;;;;;;;;;5031973;28;20037;-78
2023/04/29 04:16:19;;;;;;;3.47;1.95;;;;;;;;;;5048350;28;20124;-78
2023/04/29 04:18:45;;;;;;;1.23;0.88;;;;;;;;;;5031867;28;20030;-77
2023/04/29 04:21:11;;;;;;;2.60;1.35;;;;;;;;;;5031983;28;20440;-78
2023/04/29 04:23:39;;;;;;;1.65;1.10;;;;;;;;;;5039685;28;20037;-78
2023/04/29 04:26:04;;;;;;;1.55;1.10;;;;;;;;;;5050557;28;20032;-75
2023/04/29 04:28:30;;;;;;;1.15;1.00;;;;;;;;;;5043969;28;20354;-76
2023/04/29 04:30:55;;;;;;;3.60;2.08;;;;;;;;;;5051564;28;20021;-76
2023/04/29 04:33:21;;;;;;;1.88;0.80;;;;;;;;;;5051716;28;20090;-76
2023/04/29 04:35:46;;;;;;;6.47;1.15;;;;;;;;;;5052761;28;20094;-76
2023/04/29 04:38:12;;;;;;;4.82;1.48;;;;;;;;;;5049559;28;20036;-77
2023/04/29 04:40:41;;;;;;;1.48;0.93;;;;;;;;;;5052732;28;20056;-77
2023/04/29 04:43:06;;;;;;;1.85;1.08;;;;;;;;;;5032495;28;20131;-77
2023/04/29 04:45:32;;;;;;;1.60;0.85;;;;;;;;;;5011037;28;20124;-77
2023/04/29 04:47:57;;;;;;;1.83;1.73;;;;;;;;;;5054305;28;20032;-77
2023/04/29 04:50:23;;;;;;;2.33;1.88;;;;;;;;;;5022122;28;20029;-76
2023/04/29 04:52:48;;;;;;;2.60;1.65;;;;;;;;;;5033496;28;20032;-77
2023/04/29 04:55:13;;;;;;;2.00;0.95;;;;;;;;;;5056204;28;20044;-76
2023/04/29 04:57:39;;;;;;;1.40;1.30;;;;;;;;;;5055910;28;20043;-76
2023/04/29 05:00:05;;;;;;;1.48;1.35;;;;;;;;;;5034856;28;20029;-77
2023/04/29 05:02:31;;;;;;;1.10;1.00;;;;;;;;;;5047224;28;20029;-77
2023/04/29 05:04:56;;;;;;;1.63;1.00;;;;;;;;;;5054835;28;20048;-77
2023/04/29 05:07:22;;;;;;;1.52;0.93;;;;;;;;;;5054738;28;20128;-77
2023/04/29 05:09:47;;;;;;;4.05;1.00;;;;;;;;;;5049092;28;20095;-77
2023/04/29 05:12:13;;;;;;;1.30;0.75;;;;;;;;;;5056315;28;20028;-77
2023/04/29 05:14:38;;;;;;;1.92;1.77;;;;;;;;;;5055638;28;20033;-78
2023/04/29 05:17:03;;;;;;;3.15;1.38;;;;;;;;;;5034976;28;20041;-77
2023/04/29 05:19:29;;;;;;;0.85;0.85;;;;;;;;;;5030302;28;20086;-77
2023/04/29 05:21:54;;;;;;;2.35;1.38;;;;;;;;;;5054809;28;20036;-77
2023/04/29 05:24:20;;;;;;;1.65;1.40;;;;;;;;;;5052657;28;20089;-78
2023/04/29 05:26:45;;;;;;;1.55;1.45;;;;;;;;;;5024385;28;20033;-77
2023/04/29 05:29:11;;;;;;;1.33;1.23;;;;;;;;;;5018014;28;20022;-77
2023/04/29 05:31:37;;;;;;;1.50;1.25;;;;;;;;;;5017959;28;20036;-77
2023/04/29 05:34:03;;;;;;;0.93;0.93;;;;;;;;;;5017942;28;20447;-77
2023/04/29 05:36:29;;;;;;;1.60;0.98;;;;;;;;;;5001512;28;20040;-77
2023/04/29 05:38:54;;;;;;;1.92;1.10;;;;;;;;;;5016120;28;20029;-76
2023/04/29 05:41:20;;;;;;;1.25;1.13;;;;;;;;;;5032622;28;20410;-76
2023/04/29 05:43:45;;;;;;;2.85;1.48;;;;;;;;;;5016431;28;20040;-76
2023/04/29 05:46:11;;;;;;;1.73;1.05;;;;;;;;;;5033982;28;20067;-77
2023/04/29 05:48:36;;;;;;;3.90;0.63;;;;;;;;;;5016151;28;20029;-77
2023/04/29 05:51:01;;;;;;;2.58;1.73;;;;;;;;;;5034493;28;20340;-76
2023/04/29 05:53:27;;;;;;;2.50;1.85;;;;;;;;;;5015732;28;20053;-79
2023/04/29 05:55:53;;;;;;;4.30;2.15;;;;;;;;;;5031722;28;20083;-76
2023/04/29 05:58:18;;;;;;;3.65;2.30;;;;;;;;;;5030796;28;20485;-76
2023/04/29 06:00:44;;;;;;;4.32;2.55;;;;;;;;;;5031997;28;20124;-76
2023/04/29 06:03:12;;;;;;;1.73;1.05;;;;;;;;;;5015864;28;20120;-75
2023/04/29 06:05:37;;;;;;;2.65;1.45;;;;;;;;;;5016073;28;20403;-76
2023/04/29 06:08:03;;;;;;;2.15;1.65;;;;;;;;;;5031940;28;20120;-76
2023/04/29 06:10:29;;;;;;;2.05;1.63;;;;;;;;;;5015993;28;20124;-76
2023/04/29 06:12:54;;;;;;;2.45;1.35;;;;;;;;;;5016530;28;20121;-76
2023/04/29 06:15:20;;;;;;;0.90;0.82;;;;;;;;;;5032285;28;20068;-78
2023/04/29 06:17:46;;;;;;;2.20;1.60;;;;;;;;;;5032012;28;20385;-78
2023/04/29 06:20:11;;;;;;;2.13;1.60;;;;;;;;;;5015394;28;20028;-78
2023/04/29 06:22:37;;;;;;;1.67;1.02;;;;;;;;;;5015046;28;20025;-78
2023/04/29 06:25:02;;;;;;;1.95;1.77;;;;;;;;;;5015492;28;20119;-78
2023/04/29 06:27:28;;;;;;;1.45;1.02;;;;;;;;;;5020329;28;20065;-76
2023/04/29 06:29:53;;;;;;;2.42;1.23;;;;;;;;;;5054044;28;20025;-78
2023/04/29 06:32:19;;;;;;;2.67;1.17;;;;;;;;;;5052920;28;20477;-76
2023/04/29 06:34:44;;;;;;;1.70;1.60;;;;;;;;;;5053584;28;20029;-78
2023/04/29 06:37:10;;;;;;;5.55;0.93;;;;;;;;;;5053224;28;20190;-79
2023/04/29 06:39:36;;;;;;;4.13;2.00;;;;;;;;;;5052737;28;20455;-75
2023/04/29 06:42:02;;;;;;;1.70;1.15;;;;;;;;;;5052716;28;20040;-75
2023/04/29 06:44:27;;;;;;;3.63;2.08;;;;;;;;;;5036440;28;20489;-78
2023/04/29 06:46:53;;;;;;;1.35;1.23;;;;;;;;;;5052853;28;20056;-76
2023/04/29 06:49:18;;;;;;;3.17;1.30;;;;;;;;;;5054115;28;20078;-75
2023/04/29 06:51:44;;;;;;;1.17;0.95;;;;;;;;;;5036117;28;20024;-75
2023/04/29 06:54:09;;;;;;;3.67;1.42;;;;;;;;;;5053771;28;20066;-79
2023/04/29 06:56:35;;;;;;;2.45;1.38;;;;;;;;;;5052052;28;20043;-79
2023/04/29 06:59:01;;;;;;;1.52;1.42;;;;;;;;;;5054015;28;20370;-77
2023/04/29 07:01:26;;;;;;;4.55;2.35;;;;;;;;;;5036054;28;20457;-77
2023/04/29 07:03:51;;;;;;;5.82;2.13;;;;;;;;;;5052776;28;20072;-75
2023/04/29 07:06:17;;;;;;;2.17;1.73;;;;;;;;;;5052526;28;20025;-76
2023/04/29 07:08:42;;;;;;;4.75;2.83;;;;;;;;;;5053919;28;20111;-76
2023/04/29 07:11:08;;;;;;;1.85;1.30;;;;;;;;;;5052246;28;20025;-76
2023/04/29 07:13:33;;;;;;;1.55;1.17;;;;;;;;;;5036036;28;20410;-77
2023/04/29 07:15:59;;;;;;;2.60;1.67;;;;;;;;;;5053651;28;20033;-76
2023/04/29 07:18:25;;;;;;;3.72;1.73;;;;;;;;;;5053726;28;20033;-76
2023/04/29 07:20:54;;;;;;;2.83;1.77;;;;;;;;;;5052476;28;20071;-78
2023/04/29 07:23:20;;;;;;;1.93;1.60;;;;;;;;;;5052508;28;20029;-78
2023/04/29 07:25:45;;;;;;;2.97;2.22;;;;;;;;;;5035763;28;20616;-77
2023/04/29 07:28:10;;;;;;;6.60;2.40;;;;;;;;;;5053364;28;20024;-77
2023/04/29 07:30:36;;;;;;;3.95;2.10;;;;;;;;;;5048015;28;20032;-77
2023/04/29 07:33:03;;;;;;;1.90;1.50;;;;;;;;;;5051980;28;20029;-77
2023/04/29 07:35:28;;;;;;;3.03;2.35;;;;;;;;;;5053871;28;20386;-78
2023/04/29 07:37:54;;;;;;;2.28;1.35;;;;;;;;;;5019284;28;20047;-75
2023/04/29 07:40:20;;;;;;;2.75;1.77;;;;;;;;;;5051690;28;20040;-77
2023/04/29 07:42:46;;;;;;;3.97;2.10;;;;;;;;;;5033708;28;20067;-76
2023/04/29 07:45:12;;;;;;;2.05;1.83;;;;;;;;;;5017680;28;20024;-77
2023/04/29 07:47:38;;;;;;;3.15;1.30;;;;;;;;;;5051770;28;20051;-77
2023/04/29 07:50:04;;;;;;;2.50;1.48;;;;;;;;;;5050216;28;20029;-77
2023/04/29 07:52:29;;;;;;;2.95;1.88;;;;;;;;;;5051665;28;20051;-77
2023/04/29 07:54:55;;;;;;;2.03;1.45;;;;;;;;;;5034167;28;20434;-77
2023/04/29 07:57:20;;;;;;;14.43;4.38;;;;;;;;;;5051450;28;20036;-77
2023/04/29 07:59:46;;;;;;;4.85;2.55;;;;;;;;;;5051740;28;20086;-79
2023/04/29 08:02:12;;;;;;;2.97;1.55;;;;;;;;;;5033874;28;20636;-78
2023/04/29 08:04:40;;;;;;;3.88;2.38;;;;;;;;;;5050760;28;20451;-78
2023/04/29 08:07:05;;;;;;;4.22;1.90;;;;;;;;;;5034824;28;20047;-78
2023/04/29 08:09:30;;;;;;;2.60;1.85;;;;;;;;;;5033783;28;20541;-78
2023/04/29 08:11:56;;;;;;;4.15;2.30;;;;;;;;;;5052053;28;20020;-78
2023/04/29 08:14:21;;;;;;;2.85;1.83;;;;;;;;;;5018783;28;20035;-77
2023/04/29 08:16:47;;;;;;;4.38;2.83;;;;;;;;;;5053333;28;20061;-78
2023/04/29 08:19:12;;;;;;;2.80;2.05;;;;;;;;;;5051909;28;20029;-78
2023/04/29 08:21:38;;;;;;;2.00;1.70;;;;;;;;;;5053035;28;20111;-78
2023/04/29 08:24:04;;;;;;;6.10;2.10;;;;;;;;;;5056714;28;20373;-78
2023/04/29 08:26:30;;;;;;;2.28;1.90;;;;;;;;;;5039397;28;20025;-77
2023/04/29 08:28:55;;;;;;;4.50;2.70;;;;;;;;;;5039063;28;20348;-78
2023/04/29 08:31:21;;;;;;;3.13;2.33;;;;;;;;;;5039037;28;20056;-78
2023/04/29 08:33:47;;;;;;;2.33;1.70;;;;;;;;;;5017794;28;20040;-78
2023/04/29 08:36:12;;;;;;;4.35;2.35;;;;;;;;;;5035153;28;20039;-76
2023/04/29 08:38:38;;;;;;;8.70;2.28;;;;;;;;;;5018959;28;20126;-76
2023/04/29 08:41:04;;;;;;;3.45;2.65;;;;;;;;;;5035549;28;20110;-78
2023/04/29 08:43:29;;;;;;;4.25;2.67;;;;;;;;;;5018824;28;20107;-79
2023/04/29 08:45:56;;;;;;;3.95;2.20;;;;;;;;;;5035575;28;20032;-78
2023/04/29 08:48:22;;;;;;;5.35;2.22;;;;;;;;;;5035078;28;20045;-77
2023/04/29 08:50:48;;;;;;;2.20;1.52;;;;;;;;;;5036842;28;20053;-77
2023/04/29 08:53:14;;;;;;;5.03;2.70;;;;;;;;;;5018290;28;20053;-77
2023/04/29 08:55:45;;;;;;;2.55;1.65;;;;;;;;;;5036556;28;20049;-77
2023/04/29 08:58:11;;;;;;;4.45;2.70;;;;;;;;;;5036493;28;20394;-78
2023/04/29 09:00:37;;;;;;;4.03;2.22;;;;;;;;;;5035067;28;20179;-77
2023/04/29 09:03:24;;;;;;;4.15;3.08;;;;;;;;;;5034876;28;20328;-78
2023/04/29 09:05:52;;;;;;;12.05;3.05;;;;;;;;;;5018602;28;20063;-78
2023/04/29 09:08:17;;;;;;;3.50;2.40;;;;;;;;;;5034105;28;20191;-76
2023/04/29 09:10:43;;;;;;;3.58;2.53;;;;;;;;;;5018247;28;20053;-77
2023/04/29 09:13:08;;;;;;;3.25;2.70;;;;;;;;;;5033312;28;20030;-76
2023/04/29 09:15:39;;;;;;;2.20;1.85;;;;;;;;;;5017048;28;20029;-77
2023/04/29 09:19:08;;;;;;;3.70;2.65;;;;;;;;;;5038734;28;20206;-77
2023/04/29 09:21:34;;;;;;;7.90;2.85;;;;;;;;;;5035702;28;20048;-77
2023/04/29 09:24:00;;;;;;;5.95;2.58;;;;;;;;;;5034887;28;20091;-77
2023/04/29 09:26:26;;;;;;;6.22;2.75;;;;;;;;;;5018843;28;20510;-77
2023/04/29 09:29:14;;;;;;;2.85;2.05;;;;;;;;;;5001949;28;20029;-76
2023/04/29 09:31:40;;;;;;;4.45;2.42;;;;;;;;;;5050136;28;20051;-77
2023/04/29 09:34:06;;;;;;;2.45;1.73;;;;;;;;;;4997579;28;20040;-76
2023/04/29 09:36:37;;;;;;;5.32;2.45;;;;;;;;;;5016088;28;20458;-76
2023/04/29 09:39:10;;;;;;;10.68;2.95;;;;;;;;;;5033517;28;20037;-77
2023/04/29 09:41:57;;;;;;;8.05;2.30;;;;;;;;;;5017500;28;20037;-79
2023/04/29 09:44:27;;;;;;;3.15;2.58;;;;;;;;;;5033337;28;20047;-77
2023/04/29 09:47:19;;;;;;;4.50;2.53;;;;;;;;;;5018571;28;20385;-77
2023/04/29 09:49:45;;;;;;;7.63;2.45;;;;;;;;;;5034792;28;20030;-77
2023/04/29 09:52:12;;;;;;;5.43;2.78;;;;;;;;;;5032759;28;20022;-77
2023/04/29 09:54:39;;;;;;;4.45;2.55;;;;;;;;;;5033929;28;20029;-78
2023/04/29 09:57:05;;;;;;;3.60;2.25;;;;;;;;;;5018327;28;20037;-78
2023/04/29 09:59:32;;;;;;;3.08;2.08;;;;;;;;;;5001544;28;20037;-78
2023/04/29 10:01:57;;;;;;;2.90;2.38;;;;;;;;;;5035151;28;20080;-75
2023/04/29 10:04:24;;;;;;;5.28;2.53;;;;;;;;;;5017115;28;20033;-76
2023/04/29 10:06:50;;;;;;;4.45;2.35;;;;;;;;;;5035129;28;20021;-76
2023/04/29 10:09:17;;;;;;;2.42;1.77;;;;;;;;;;5017522;28;20036;-76
2023/04/29 10:11:52;;;;;;;4.45;2.58;;;;;;;;;;5001154;28;20750;-76
2023/04/29 10:14:19;;;;;;;2.38;1.85;;;;;;;;;;5033690;28;20026;-76
2023/04/29 10:16:45;;;;;;;3.15;1.90;;;;;;;;;;5017492;28;20060;-75
2023/04/29 10:19:11;;;;;;;2.97;1.98;;;;;;;;;;5034873;28;20032;-75
2023/04/29 10:21:37;;;;;;;6.70;3.40;;;;;;;;;;5017246;28;20037;-75
2023/04/29 10:24:02;;;;;;;3.45;1.83;;;;;;;;;;5033720;28;20029;-76
2023/04/29 10:26:28;;;;;;;2.50;1.85;;;;;;;;;;5033359;28;20030;-76
2023/04/29 10:28:58;;;;;;;3.85;1.77;;;;;;;;;;5033575;28;20120;-75
2023/04/29 10:31:27;;;;;;;4.90;2.25;;;;;;;;;;5001643;28;20029;-76
2023/04/29 10:33:56;;;;;;;2.22;1.75;;;;;;;;;;5016874;28;20059;-78
2023/04/29 10:36:23;;;;;;;3.58;2.28;;;;;;;;;;5031910;28;20044;-78
2023/04/29 10:38:51;;;;;;;5.28;3.25;;;;;;;;;;5000305;28;20043;-77
2023/04/29 10:41:24;;;;;;;4.30;2.33;;;;;;;;;;5001220;28;20457;-78
2023/04/29 10:43:51;;;;;;;3.75;2.05;;;;;;;;;;5032759;28;20030;-77
2023/04/29 10:46:17;;;;;;;3.13;2.10;;;;;;;;;;5016335;28;20140;-77
2023/04/29 10:48:43;;;;;;;3.45;2.10;;;;;;;;;;5032743;28;20128;-76
2023/04/29 10:51:08;;;;;;;3.85;2.45;;;;;;;;;;5016850;28;20096;-77
2023/04/29 10:53:34;;;;;;;2.90;2.15;;;;;;;;;;5000538;28;20060;-76
2023/04/29 10:56:07;;;;;;;3.42;2.50;;;;;;;;;;5016380;28;20041;-75
2023/04/29 10:58:39;;;;;;;2.65;1.75;;;;;;;;;;5032880;28;20053;-76
2023/04/29 11:01:06;;;;;;;2.20;1.85;;;;;;;;;;5032703;28;20045;-77
2023/04/29 11:03:57;;;;;;;2.22;1.88;;;;;;;;;;5016338;28;20033;-76
2023/04/29 11:06:24;;;;;;;2.88;2.15;;;;;;;;;;5017417;28;20080;-78
2023/04/29 11:09:01;;;;;;;2.28;2.00;;;;;;;;;;5032843;28;20129;-77
2023/04/29 11:11:59;;;;;;;2.20;1.48;;;;;;;;;;5017201;28;20034;-77
2023/04/29 11:14:25;;;;;;;2.47;1.90;;;;;;;;;;5033907;28;20025;-78
2023/04/29 11:16:52;;;;;;;2.17;1.55;;;;;;;;;;5033648;28;20036;-78
2023/04/29 11:19:17;;;;;;;3.22;2.00;;;;;;;;;;5000275;28;20026;-78
2023/04/29 11:21:44;;;;;;;2.42;1.63;;;;;;;;;;5016498;28;20071;-78
2023/04/29 11:24:11;;;;;;;3.03;2.25;;;;;;;;;;5033721;28;20072;-77
2023/04/29 11:26:36;;;;;;;3.00;1.75;;;;;;;;;;5033766;28;20025;-78
2023/04/29 11:29:02;;;;;;;5.40;2.50;;;;;;;;;;5033780;28;20021;-78
2023/04/29 11:31:31;;;;;;;2.58;1.85;;;;;;;;;;5015984;28;20033;-79
2023/04/29 11:33:58;;;;;;;4.03;2.88;;;;;;;;;;5032756;28;20112;-78
2023/04/29 11:36:23;;;;;;;1.70;1.60;;;;;;;;;;5032474;28;20359;-77
2023/04/29 11:38:48;;;;;;;3.45;2.22;;;;;;;;;;5024815;28;20036;-78
2023/04/29 11:41:14;;;;;;;3.20;2.13;;;;;;;;;;5052025;28;20059;-77
2023/04/29 11:43:40;;;;;;;9.65;2.30;;;;;;;;;;5029042;28;20045;-79
2023/04/29 11:46:15;;;;;;;5.10;2.05;;;;;;;;;;5051717;28;20025;-78
2023/04/29 11:48:47;;;;;;;4.13;2.75;;;;;;;;;;5019360;28;20035;-77
2023/04/29 11:51:13;;;;;;;3.22;1.80;;;;;;;;;;5035620;28;20091;-78
2023/04/29 11:53:38;;;;;;;4.15;2.35;;;;;;;;;;5035169;28;20030;-77
2023/04/29 11:56:04;;;;;;;2.47;2.05;;;;;;;;;;5020375;28;20083;-77
2023/04/29 11:58:29;;;;;;;5.25;2.10;;;;;;;;;;5039363;28;20362;-77
2023/04/29 12:00:56;;;;;;;6.63;2.63;;;;;;;;;;5056932;28;20546;-78
2023/04/29 12:03:22;;;;;;;3.90;2.08;;;;;;;;;;5007096;28;20064;-78
2023/04/29 12:05:50;;;;;;;3.78;1.83;;;;;;;;;;5039334;28;20114;-78
2023/04/29 12:08:23;;;;;;;2.75;2.15;;;;;;;;;;5039371;28;20033;-78
2023/04/29 12:10:48;;;;;;;2.88;1.85;;;;;;;;;;5023246;28;20028;-78
2023/04/29 12:13:15;;;;;;;6.05;2.13;;;;;;;;;;5023022;28;20052;-78
2023/04/29 12:15:40;;;;;;;3.15;1.88;;;;;;;;;;5022691;28;20111;-78
2023/04/29 12:18:06;;;;;;;4.38;2.17;;;;;;;;;;5022825;28;20138;-77
2023/04/29 12:20:31;;;;;;;2.33;2.00;;;;;;;;;;5022768;28;20174;-77
2023/04/29 12:23:12;;;;;;;2.83;1.80;;;;;;;;;;5039188;28;20025;-77
2023/04/29 12:25:40;;;;;;;3.85;1.90;;;;;;;;;;5013291;28;20124;-78
2023/04/29 12:28:10;;;;;;;4.70;2.53;;;;;;;;;;5020078;28;20030;-78
2023/04/29 12:30:36;;;;;;;4.03;2.42;;;;;;;;;;5038908;28;20366;-78
2023/04/29 12:33:01;;;;;;;2.40;1.75;;;;;;;;;;5022678;28;20025;-78
2023/04/29 12:35:27;;;;;;;5.57;2.10;;;;;;;;;;5006408;28;20433;-78
2023/04/29 12:37:52;;;;;;;2.63;1.75;;;;;;;;;;5056859;28;20033;-79
2023/04/29 12:40:19;;;;;;;3.28;2.00;;;;;;;;;;5043364;28;20026;-78
2023/04/29 12:42:45;;;;;;;3.25;2.30;;;;;;;;;;5018954;28;20026;-78
2023/04/29 12:45:26;;;;;;;2.20;1.85;;;;;;;;;;5002534;28;20132;-77
2023/04/29 12:47:52;;;;;;;2.83;2.05;;;;;;;;;;5034176;28;20127;-78
2023/04/29 12:50:18;;;;;;;3.45;2.60;;;;;;;;;;5038492;28;20044;-78
2023/04/29 12:52:43;;;;;;;3.10;1.80;;;;;;;;;;5035449;28;20095;-79
2023/04/29 12:55:09;;;;;;;1.98;1.60;;;;;;;;;;5036210;28;20018;-78
2023/04/29 12:57:34;;;;;;;4.68;2.05;;;;;;;;;;5018274;28;20041;-77
2023/04/29 13:00:00;;;;;;;6.47;2.33;;;;;;;;;;5034850;28;20029;-77
2023/04/29 13:02:26;;;;;;;2.42;1.83;;;;;;;;;;5038240;28;20115;-77
2023/04/29 13:04:51;;;;;;;3.60;2.15;;;;;;;;;;5018781;28;20116;-77
2023/04/29 13:07:17;;;;;;;4.80;1.98;;;;;;;;;;5036875;28;20400;-77
2023/04/29 13:09:43;;;;;;;3.25;1.85;;;;;;;;;;5034829;28;20498;-78
2023/04/29 13:12:08;;;;;;;3.72;2.20;;;;;;;;;;5053515;28;20104;-79
2023/04/29 13:14:33;;;;;;;6.55;2.75;;;;;;;;;;5018333;28;20025;-79
2023/04/29 13:16:59;;;;;;;3.85;2.17;;;;;;;;;;5034865;28;20513;-76
2023/04/29 13:19:24;;;;;;;3.25;1.95;;;;;;;;;;5021509;28;20366;-77
2023/04/29 13:21:50;;;;;;;3.08;1.88;;;;;;;;;;5018578;28;20029;-76
2023/04/29 13:24:17;;;;;;;2.83;2.08;;;;;;;;;;5036825;28;20030;-78
2023/04/29 13:26:43;;;;;;;4.38;2.20;;;;;;;;;;5056010;28;20343;-76
2023/04/29 13:29:08;;;;;;;3.03;2.10;;;;;;;;;;5035384;28;20033;-79
2023/04/29 13:31:34;;;;;;;3.13;1.92;;;;;;;;;;5055881;28;20040;-75
2023/04/29 13:33:59;;;;;;;3.10;2.17;;;;;;;;;;5056147;28;20051;-76
2023/04/29 13:36:27;;;;;;;2.60;1.45;;;;;;;;;;5037850;28;20450;-76
2023/04/29 13:38:52;;;;;;;1.98;1.67;;;;;;;;;;5034763;28;20037;-76
2023/04/29 13:41:17;;;;;;;3.38;2.00;;;;;;;;;;5031563;28;21291;-76
2023/04/29 13:43:43;;;;;;;2.78;2.13;;;;;;;;;;5034228;28;20025;-76
2023/04/29 13:46:08;;;;;;;3.92;2.75;;;;;;;;;;5035373;28;20017;-76
2023/04/29 13:48:34;;;;;;;3.15;1.90;;;;;;;;;;5037490;28;20032;-79
2023/04/29 13:50:59;;;;;;;3.22;2.17;;;;;;;;;;5021222;28;20036;-76
2023/04/29 13:53:25;;;;;;;4.82;1.98;;;;;;;;;;5037458;28;20477;-75
2023/04/29 13:55:50;;;;;;;3.05;2.20;;;;;;;;;;5037392;28;20397;-76
2023/04/29 13:58:16;;;;;;;2.40;2.17;;;;;;;;;;5037154;28;20032;-76
2023/04/29 14:00:41;;;;;;;2.25;1.75;;;;;;;;;;5055131;28;20405;-76
2023/04/29 14:03:07;;;;;;;3.97;1.52;;;;;;;;;;5055216;28;20044;-76
2023/04/29 14:05:32;;;;;;;2.35;2.00;;;;;;;;;;5055203;28;20053;-77
2023/04/29 14:07:58;;;;;;;2.97;2.22;;;;;;;;;;5020729;28;20029;-78
2023/04/29 14:10:23;;;;;;;4.38;2.10;;;;;;;;;;5020510;28;20029;-78
2023/04/29 14:12:49;;;;;;;3.75;2.53;;;;;;;;;;5054495;28;20051;-77
2023/04/29 14:15:15;;;;;;;2.92;2.05;;;;;;;;;;5037375;28;20035;-77
2023/04/29 14:17:40;;;;;;;2.78;1.80;;;;;;;;;;5037039;28;20060;-77
2023/04/29 14:20:06;;;;;;;3.28;2.30;;;;;;;;;;5053660;28;20029;-77
2023/04/29 14:22:32;;;;;;;2.60;1.77;;;;;;;;;;5037304;28;20025;-78
2023/04/29 14:24:57;;;;;;;2.55;1.63;;;;;;;;;;5020706;28;20039;-79
2023/04/29 14:27:23;;;;;;;2.83;1.70;;;;;;;;;;5020041;28;20071;-76
2023/04/29 14:29:49;;;;;;;2.88;2.22;;;;;;;;;;5036811;28;20059;-76
2023/04/29 14:32:14;;;;;;;3.38;1.85;;;;;;;;;;5020310;28;20056;-76
2023/04/29 14:34:40;;;;;;;2.75;1.90;;;;;;;;;;5054488;28;20082;-76
2023/04/29 14:37:05;;;;;;;10.75;5.53;;;;;;;;;;5020227;28;20439;-76
2023/04/29 14:39:31;;;;;;;5.00;2.72;;;;;;;;;;5054445;28;20029;-76
2023/04/29 14:41:56;;;;;;;5.88;3.05;;;;;;;;;;5055061;28;20051;-78